Tiff City, Missouri
Current Conditions -  °F | °C
As of 2:15 PM on Friday 28 Nov 2014 (Local Time) from KGMJ Reporting Station
Clear Clear  
Wind Chill: 64°   Ceiling: Unl
Heat Index: 64°   Visibility: 10mi
Dew Point: 36°   Wind: 17mph
Humidity: 34%   Direction: 180°S
Pressure: 29.95"   Gusts: NA
Location:  36.67°N, 94.62°W
Report Text: KGMJ 282015Z AUTO 18015KT 10SM CLR 18/02 A2995 RMK AO2
Loading
Personal Weather Stations






























Interactive Weather Map New forecast layout! Learn more

10-Day Weather Forecast

Advertisements
Track Severe Weather on mobile